Time;durP1;ratioP1;P1;durP2;ratioP2;P2;SDS_P1;SDS_P2;PMS_P1;PMS_P2;Temp;Humidity;BMP_temperature;BMP_pressure;BME280_temperature;BME280_humidity;BME280_pressure;Samples;Min_cycle;Max_cycle;Signal;HPM_P1;HPM_P2
2023/02/05 00:01:52;;;;;;;;;2.00;2.00;;;;;11.42;100.00;103743.41;5122818;27;45442;-77
2023/02/05 00:04:18;;;;;;;;;1.33;1.33;;;;;11.42;100.00;103729.28;5100582;27;46229;-77
2023/02/05 00:06:44;;;;;;;;;2.00;2.00;;;;;11.42;100.00;103724.91;5102320;27;45347;-77
2023/02/05 00:09:10;;;;;;;;;2.33;2.33;;;;;11.43;100.00;103732.00;5086069;27;45372;-78
2023/02/05 00:11:35;;;;;;;;;3.00;1.67;;;;;11.44;100.00;103733.81;5103064;27;45443;-77
2023/02/05 00:14:01;;;;;;;;;1.00;1.00;;;;;11.44;100.00;103736.47;5117264;27;45724;-77
2023/02/05 00:16:26;;;;;;;;;2.00;2.00;;;;;11.45;100.00;103725.06;5104231;27;45410;-77
2023/02/05 00:18:52;;;;;;;;;0.67;0.00;;;;;11.43;100.00;103715.22;5112971;27;45587;-76
2023/02/05 00:21:19;;;;;;;;;1.33;1.00;;;;;11.45;100.00;103724.13;5087416;27;45649;-77
2023/02/05 00:23:46;;;;;;;;;1.67;0.00;;;;;11.46;100.00;103731.28;5098606;27;46745;-78
2023/02/05 00:26:13;;;;;;;;;2.00;1.00;;;;;11.45;100.00;103734.72;5113925;27;45482;-77
2023/02/05 00:28:39;;;;;;;;;1.00;1.00;;;;;11.45;100.00;103724.13;5101260;27;45407;-77
2023/02/05 00:31:10;;;;;;;;;2.33;1.00;;;;;11.47;100.00;103728.69;5102019;27;45653;-77
2023/02/05 00:33:35;;;;;;;;;1.00;1.00;;;;;11.49;100.00;103720.84;5098519;27;47403;-77
2023/02/05 00:36:00;;;;;;;;;0.33;0.33;;;;;11.47;100.00;103718.13;5082765;27;46003;-77
2023/02/05 00:38:26;;;;;;;;;0.33;0.33;;;;;11.47;100.00;103710.19;5112747;27;45455;-76
2023/02/05 00:40:51;;;;;;;;;0.33;0.33;;;;;11.47;100.00;103720.75;5114104;27;45288;-77
2023/02/05 00:43:16;;;;;;;;;0.67;0.67;;;;;11.45;100.00;103722.44;5099720;27;59738;-77
2023/02/05 00:45:42;;;;;;;;;3.00;0.33;;;;;11.44;100.00;103717.94;5119221;27;51436;-77
2023/02/05 00:48:07;;;;;;;;;2.00;1.00;;;;;11.44;100.00;103722.31;5110956;27;45482;-77
2023/02/05 00:50:33;;;;;;;;;1.00;0.00;;;;;11.42;100.00;103719.59;5081991;27;45452;-77
2023/02/05 00:52:58;;;;;;;;;0.00;0.00;;;;;11.44;100.00;103719.69;5090033;27;45703;-77
2023/02/05 00:55:24;;;;;;;;;2.00;1.00;;;;;11.44;100.00;103712.66;5097104;27;59015;-77
2023/02/05 00:57:50;;;;;;;;;1.00;1.00;;;;;11.46;100.00;103710.09;5092478;27;47516;-77
2023/02/05 01:00:15;;;;;;;;;0.00;0.00;;;;;11.44;100.00;103709.09;5114650;27;45517;-77
2023/02/05 01:02:41;;;;;;;;;0.33;0.33;;;;;11.46;100.00;103699.53;5097616;27;47056;-77
2023/02/05 01:05:06;;;;;;;;;1.00;1.00;;;;;11.41;100.00;103695.72;5116081;27;45284;-77
2023/02/05 01:07:32;;;;;;;;;1.00;1.00;;;;;11.44;100.00;103693.22;5099240;27;45441;-76
2023/02/05 01:09:57;;;;;;;;;0.00;0.00;;;;;11.44;100.00;103688.84;5112308;27;45538;-77
2023/02/05 01:12:23;;;;;;;;;2.00;0.67;;;;;11.45;100.00;103690.69;5088552;27;53734;-76
2023/02/05 01:14:48;;;;;;;;;0.67;0.67;;;;;11.46;100.00;103694.22;5100248;27;45469;-77
2023/02/05 01:17:14;;;;;;;;;1.00;1.00;;;;;11.46;100.00;103694.22;5118766;27;45456;-77
2023/02/05 01:19:39;;;;;;;;;4.33;1.33;;;;;11.46;100.00;103686.28;5100526;27;59663;-77
2023/02/05 01:22:05;;;;;;;;;1.00;1.00;;;;;11.45;100.00;103681.81;5111925;27;45982;-77
2023/02/05 01:24:30;;;;;;;;;1.67;0.67;;;;;11.45;100.00;103687.09;5114686;27;45488;-78
2023/02/05 01:26:57;;;;;;;;;1.00;0.00;;;;;11.45;100.00;103689.75;5114276;27;45669;-77
2023/02/05 01:29:23;;;;;;;;;3.67;0.00;;;;;11.42;100.00;103690.50;5098832;27;45596;-77
2023/02/05 01:31:49;;;;;;;;;2.67;0.67;;;;;11.42;100.00;103685.22;5115036;27;46683;-77
2023/02/05 01:34:14;;;;;;;;;1.00;1.00;;;;;11.40;100.00;103680.66;5117522;27;45325;-77
2023/02/05 01:36:40;;;;;;;;;1.00;1.00;;;;;11.42;100.00;103687.84;5084043;27;45491;-77
2023/02/05 01:39:05;;;;;;;;;1.00;1.00;;;;;11.43;100.00;103676.44;5098146;27;45312;-77
2023/02/05 01:41:30;;;;;;;;;1.00;1.00;;;;;11.45;100.00;103676.50;5094369;27;46589;-77
2023/02/05 01:44:17;;;;;;;;;2.00;1.00;;;;;11.46;100.00;103684.56;5096807;27;50034;-77
2023/02/05 01:46:43;;;;;;;;;0.00;0.00;;;;;11.46;100.00;103673.97;5106791;27;45413;-77
2023/02/05 01:49:24;;;;;;;;;0.67;0.67;;;;;11.46;100.00;103681.91;5097846;27;45613;-77
2023/02/05 01:51:51;;;;;;;;;0.00;0.00;;;;;11.44;100.00;103669.41;5113566;27;45515;-77
2023/02/05 01:54:17;;;;;;;;;2.00;1.00;;;;;11.44;100.00;103667.66;5113236;27;45650;-77
2023/02/05 01:56:47;;;;;;;;;2.00;0.67;;;;;11.46;100.00;103681.91;5115075;27;45603;-77
2023/02/05 01:59:18;;;;;;;;;1.00;1.00;;;;;11.41;100.00;103654.31;5081563;27;45513;-77
2023/02/05 02:01:44;;;;;;;;;2.67;1.67;;;;;11.43;100.00;103662.31;5115942;27;46398;-77
2023/02/05 02:04:14;;;;;;;;;1.33;1.33;;;;;11.40;100.00;103643.63;5100699;27;45501;-78
2023/02/05 02:06:40;;;;;;;;;1.00;1.00;;;;;11.42;100.00;103653.47;5086314;27;45583;-77
2023/02/05 02:09:06;;;;;;;;;6.33;2.00;;;;;11.42;100.00;103649.91;5084476;27;45621;-78
2023/02/05 02:11:35;;;;;;;;;1.00;1.00;;;;;11.39;100.00;103645.34;5081435;27;48086;-78
2023/02/05 02:14:05;;;;;;;;;0.00;0.00;;;;;11.39;100.00;103647.09;5109468;27;45402;-78
2023/02/05 02:16:32;;;;;;;;;2.00;2.00;;;;;11.39;100.00;103653.28;5078574;27;45320;-77
2023/02/05 02:18:57;;;;;;;;;1.67;1.00;;;;;11.41;100.00;103648.09;5097602;27;45581;-77
2023/02/05 02:21:41;;;;;;;;;1.00;1.00;;;;;11.41;100.00;103638.44;5098498;27;46497;-77
2023/02/05 02:24:24;;;;;;;;;2.00;2.00;;;;;11.40;100.00;103646.25;5113435;27;45454;-78
2023/02/05 02:27:07;;;;;;;;;1.00;1.00;;;;;11.38;100.00;103646.19;5106807;27;45854;-78
2023/02/05 02:29:48;;;;;;;;;3.00;1.33;;;;;11.36;100.00;103641.66;5098101;27;45578;-78
2023/02/05 02:32:16;;;;;;;;;3.00;2.00;;;;;11.34;100.00;103657.44;5094015;27;46630;-77
2023/02/05 02:34:48;;;;;;;;;3.00;2.00;;;;;11.31;100.00;103657.28;5112151;27;45783;-76
2023/02/05 02:37:21;;;;;;;;;4.33;2.00;;;;;11.31;100.00;103661.66;5096576;27;45386;-78
2023/02/05 02:39:55;;;;;;;;;1.33;1.33;;;;;11.27;100.00;103666.78;5097639;27;45432;-78
2023/02/05 02:42:25;;;;;;;;;1.00;1.00;;;;;11.27;100.00;103671.16;5096284;27;45646;-77
2023/02/05 02:45:09;;;;;;;;;1.67;1.67;;;;;11.27;100.00;103685.28;5097266;27;46612;-77
2023/02/05 02:47:38;;;;;;;;;1.00;1.00;;;;;11.25;100.00;103683.41;5076425;27;45628;-77
2023/02/05 02:50:10;;;;;;;;;2.33;2.33;;;;;11.22;100.00;103680.59;5095015;27;45402;-77
2023/02/05 02:52:39;;;;;;;;;2.00;2.00;;;;;11.22;100.00;103683.22;5081418;27;47630;-78
2023/02/05 02:55:08;;;;;;;;;1.67;1.67;;;;;11.24;100.00;103685.16;5098518;27;45454;-77
2023/02/05 02:57:35;;;;;;;;;2.00;2.00;;;;;11.27;100.00;103692.31;5077784;27;45522;-78
2023/02/05 03:00:03;;;;;;;;;3.33;2.00;;;;;11.27;100.00;103692.31;5095852;27;45366;-77
2023/02/05 03:02:31;;;;;;;;;4.00;3.00;;;;;11.26;100.00;103685.22;5116355;27;46597;-77
2023/02/05 03:05:01;;;;;;;;;4.33;2.00;;;;;11.23;100.00;103682.41;5074341;27;45603;-79
2023/02/05 03:07:31;;;;;;;;;2.00;2.00;;;;;11.23;100.00;103692.97;5099669;27;45310;-79
2023/02/05 03:10:03;;;;;;;;;3.00;3.00;;;;;11.20;100.00;103690.19;5097135;27;45219;-77
2023/02/05 03:12:28;;;;;;;;;2.00;2.00;;;;;11.18;100.00;103690.06;5095784;27;45482;-76
2023/02/05 03:14:54;;;;;;;;;3.00;1.00;;;;;11.14;100.00;103700.44;5094773;27;45447;-78
2023/02/05 03:17:20;;;;;;;;;2.00;2.00;;;;;11.15;100.00;103702.25;5115022;27;45179;-77
2023/02/05 03:19:49;;;;;;;;;2.67;2.00;;;;;11.14;100.00;103688.13;5092800;27;45664;-77
2023/02/05 03:22:15;;;;;;;;;2.00;2.00;;;;;11.12;100.00;103699.41;5112256;27;45679;-78
2023/02/05 03:24:41;;;;;;;;;2.00;1.67;;;;;11.09;100.00;103686.97;5081277;27;52325;-78
2023/02/05 03:27:06;;;;;;;;;3.33;3.00;;;;;11.08;100.00;103700.06;5096840;27;45425;-78
2023/02/05 03:29:35;;;;;;;;;2.00;2.00;;;;;11.02;100.00;103703.28;5098180;27;45517;-78
2023/02/05 03:32:26;;;;;;;;;3.67;2.00;;;;;10.97;100.00;103695.13;5097088;27;46102;-77
2023/02/05 03:35:20;;;;;;;;;3.00;2.00;;;;;10.97;100.00;103702.13;5075075;27;45331;-77
2023/02/05 03:38:11;;;;;;;;;2.00;2.00;;;;;10.94;100.00;103681.72;5094042;27;45517;-77
2023/02/05 03:40:44;;;;;;;;;1.00;1.00;;;;;10.92;100.00;103686.03;5115733;27;45401;-78
2023/02/05 03:43:29;;;;;;;;;3.33;2.00;;;;;10.92;100.00;103683.41;5107686;27;45488;-77
2023/02/05 03:46:19;;;;;;;;;3.00;3.00;;;;;10.93;100.00;103684.31;5108532;27;46014;-78
2023/02/05 03:49:03;;;;;;;;;2.00;2.00;;;;;10.93;100.00;103694.88;5114850;27;45591;-78
2023/02/05 03:51:45;;;;;;;;;1.00;1.00;;;;;10.91;100.00;103686.84;5098664;27;45627;-77
2023/02/05 03:54:17;;;;;;;;;4.00;2.67;;;;;10.90;100.00;103684.13;5093712;27;45673;-77
2023/02/05 03:56:42;;;;;;;;;2.67;2.67;;;;;10.89;100.00;103688.50;5080374;27;45574;-78
2023/02/05 03:59:08;;;;;;;;;3.50;2.00;;;;;10.87;100.00;103687.53;5097515;27;45588;-78
2023/02/05 04:01:34;;;;;;;;;3.67;2.00;;;;;10.86;100.00;103687.41;5080384;27;45676;-77
2023/02/05 04:03:59;;;;;;;;;3.25;3.25;;;;;10.84;100.00;103689.06;5094634;27;48174;-77
2023/02/05 04:06:25;;;;;;;;;2.00;2.00;;;;;10.83;100.00;103695.19;5080491;27;47759;-77
2023/02/05 04:08:50;;;;;;;;;7.00;3.00;;;;;10.81;100.00;103691.53;5098636;27;45305;-77
2023/02/05 04:11:16;;;;;;;;;2.00;2.00;;;;;10.78;100.00;103684.34;5101179;27;45604;-78
2023/02/05 04:13:41;;;;;;;;;8.33;2.67;;;;;10.75;100.00;103686.81;5093097;27;46608;-78
2023/02/05 04:16:06;;;;;;;;;4.00;2.75;;;;;10.76;100.00;103691.31;5117705;27;45495;-77
2023/02/05 04:18:32;;;;;;;;;6.25;4.00;;;;;10.75;100.00;103695.66;5114747;27;45495;-77
2023/02/05 04:20:58;;;;;;;;;7.33;3.33;;;;;10.74;100.00;103695.56;5097885;27;55268;-77
2023/02/05 04:23:24;;;;;;;;;5.50;4.00;;;;;10.75;100.00;103689.44;5075441;27;48285;-77
2023/02/05 04:25:54;;;;;;;;;2.33;2.33;;;;;10.73;100.00;103693.75;5100837;27;45448;-78
2023/02/05 04:28:19;;;;;;;;;6.00;3.00;;;;;10.75;100.00;103713.25;5102396;27;45490;-77
2023/02/05 04:30:45;;;;;;;;;6.00;3.00;;;;;10.78;100.00;103715.16;5080492;27;45633;-78
2023/02/05 04:33:10;;;;;;;;;3.50;3.00;;;;;10.75;100.00;103708.84;5091556;27;47071;-77
2023/02/05 04:35:36;;;;;;;;;5.33;4.00;;;;;10.76;100.00;103715.09;5101102;27;45409;-78
2023/02/05 04:38:01;;;;;;;;;4.75;4.00;;;;;10.74;100.00;103709.69;5115142;27;45211;-78
2023/02/05 04:40:26;;;;;;;;;3.00;3.00;;;;;10.77;100.00;103722.19;5110346;27;45286;-80
2023/02/05 04:42:52;;;;;;;;;3.00;3.00;;;;;10.76;100.00;103712.44;5115154;27;45994;-78
2023/02/05 04:45:17;;;;;;;;;4.75;3.50;;;;;10.74;100.00;103708.78;5095944;27;62692;-78
2023/02/05 04:47:42;;;;;;;;;8.50;5.00;;;;;10.72;100.00;103710.44;5098928;27;45418;-77
2023/02/05 04:50:08;;;;;;;;;4.75;3.50;;;;;10.74;100.00;103711.44;5098792;27;61773;-78
2023/02/05 04:52:33;;;;;;;;;7.75;4.00;;;;;10.74;100.00;103727.28;5117927;27;46609;-77
2023/02/05 04:54:58;;;;;;;;;4.25;4.25;;;;;10.72;100.00;103721.91;5098656;27;66624;-77
2023/02/05 04:57:24;;;;;;;;;3.00;3.00;;;;;10.72;100.00;103721.91;5119252;27;45359;-78
2023/02/05 04:59:50;;;;;;;;;6.75;5.75;;;;;10.72;100.00;103716.63;5100303;27;45671;-76
2023/02/05 05:02:15;;;;;;;;;4.50;2.75;;;;;10.70;100.00;103720.91;5118224;27;46081;-77
2023/02/05 05:04:41;;;;;;;;;5.33;2.67;;;;;10.66;100.00;103710.09;5070286;27;45407;-78
2023/02/05 05:07:08;;;;;;;;;4.75;3.50;;;;;10.68;100.00;103725.19;5081725;27;45399;-77
2023/02/05 05:09:35;;;;;;;;;6.00;3.00;;;;;10.68;100.00;103713.72;5096926;27;45483;-78
2023/02/05 05:12:00;;;;;;;;;3.50;3.50;;;;;10.67;100.00;103702.25;5100131;27;46830;-78
2023/02/05 05:14:26;;;;;;;;;6.50;4.00;;;;;10.68;100.00;103708.44;5100220;27;45513;-77
2023/02/05 05:16:52;;;;;;;;;5.50;4.00;;;;;10.67;100.00;103720.75;5100878;27;45473;-77
2023/02/05 05:19:17;;;;;;;;;7.75;6.00;;;;;10.66;100.00;103731.25;5117643;27;45975;-78
2023/02/05 05:21:42;;;;;;;;;8.25;4.75;;;;;10.67;100.00;103730.41;5113493;27;47961;-77
2023/02/05 05:24:08;;;;;;;;;5.00;3.67;;;;;10.64;100.00;103725.84;5099690;27;64171;-78
2023/02/05 05:26:33;;;;;;;;;5.25;4.00;;;;;10.65;100.00;103732.03;5115389;27;49459;-77
2023/02/05 05:28:58;;;;;;;;;5.50;3.50;;;;;10.62;100.00;103732.78;5117600;27;45503;-78
2023/02/05 05:31:24;;;;;;;;;3.75;3.75;;;;;10.62;100.00;103729.22;5097329;27;56281;-77
2023/02/05 05:33:50;;;;;;;;;3.25;1.75;;;;;10.59;100.00;103734.34;5099577;27;45500;-77
2023/02/05 05:36:15;;;;;;;;;6.00;4.00;;;;;10.59;100.00;103731.69;5080593;27;45435;-77
2023/02/05 05:38:41;;;;;;;;;4.00;4.00;;;;;10.62;100.00;103750.38;5118424;27;45252;-77
2023/02/05 05:43:53;;;;;;;;;4.00;4.00;;;;;10.58;100.00;103748.38;5102191;27;45405;-77
2023/02/05 05:46:24;;;;;;;;;6.25;3.00;;;;;10.55;100.00;103742.94;5094066;27;45879;-77
2023/02/05 05:48:59;;;;;;;;;4.00;4.00;;;;;10.56;100.00;103748.28;5093749;27;45402;-78
2023/02/05 05:51:26;;;;;;;;;7.00;7.00;;;;;10.56;100.00;103742.09;5074590;27;48540;-77
2023/02/05 05:53:51;;;;;;;;;5.00;5.00;;;;;10.54;100.00;103746.38;5091249;27;45647;-78
2023/02/05 05:56:17;;;;;;;;;5.75;3.50;;;;;10.53;100.00;103750.75;5096687;27;45754;-77
2023/02/05 05:58:43;;;;;;;;;8.00;4.75;;;;;10.48;100.00;103747.81;5082717;27;45654;-77
2023/02/05 06:01:09;;;;;;;;;6.00;4.25;;;;;10.49;100.00;103757.59;5116328;27;45513;-78
2023/02/05 06:03:35;;;;;;;;;7.50;4.25;;;;;10.49;100.00;103748.72;5099931;27;45379;-77
2023/02/05 06:06:04;;;;;;;;;3.50;3.50;;;;;10.48;100.00;103746.91;5099181;27;45553;-78
2023/02/05 06:08:30;;;;;;;;;5.50;4.00;;;;;10.49;100.00;103749.69;5099450;27;45326;-77
2023/02/05 06:10:55;;;;;;;;;4.00;4.00;;;;;10.51;100.00;103741.81;5082205;27;48261;-77
2023/02/05 06:13:21;;;;;;;;;7.50;4.00;;;;;10.53;100.00;103745.47;5116064;27;66256;-77
2023/02/05 06:15:47;;;;;;;;;3.50;3.50;;;;;10.54;100.00;103743.72;5099063;27;45493;-77
2023/02/05 06:18:13;;;;;;;;;3.50;3.50;;;;;10.56;100.00;103744.75;5089221;27;45477;-77
2023/02/05 06:20:38;;;;;;;;;4.00;4.00;;;;;10.56;100.00;103744.75;5101302;27;47812;-78
2023/02/05 06:23:04;;;;;;;;;3.25;3.25;;;;;10.57;100.00;103742.19;5119045;27;54953;-77
2023/02/05 06:25:29;;;;;;;;;7.00;4.75;;;;;10.57;100.00;103746.56;5097711;27;45718;-77
2023/02/05 06:27:55;;;;;;;;;8.75;5.25;;;;;10.57;100.00;103746.56;5095356;27;45529;-78
2023/02/05 06:30:20;;;;;;;;;5.25;4.00;;;;;10.58;100.00;103735.16;5109672;27;45957;-77
2023/02/05 06:32:45;;;;;;;;;6.50;4.75;;;;;10.53;100.00;103729.59;5116181;27;56316;-77
2023/02/05 06:35:11;;;;;;;;;9.50;7.00;;;;;10.56;100.00;103728.88;5098738;27;45667;-78
2023/02/05 06:37:36;;;;;;;;;10.00;6.00;;;;;10.56;100.00;103731.53;5090453;27;45449;-79
2023/02/05 06:40:01;;;;;;;;;3.50;3.50;;;;;10.57;100.00;103731.59;5098409;27;52394;-76
2023/02/05 06:42:27;;;;;;;;;9.75;6.25;;;;;10.60;100.00;103728.22;5081799;27;52020;-77
2023/02/05 06:44:52;;;;;;;;;5.75;4.00;;;;;10.57;100.00;103723.69;5092225;27;45378;-78
2023/02/05 06:47:18;;;;;;;;;3.75;3.75;;;;;10.60;100.00;103722.94;5082340;27;45446;-78
2023/02/05 06:49:43;;;;;;;;;6.50;4.00;;;;;10.56;100.00;103719.22;5094557;27;51866;-78
2023/02/05 06:52:08;;;;;;;;;7.75;3.75;;;;;10.53;100.00;103720.78;5097298;27;45351;-78
2023/02/05 06:54:34;;;;;;;;;4.25;4.00;;;;;10.46;100.00;103723.06;5086740;27;46039;-78
2023/02/05 06:56:59;;;;;;;;;4.00;4.00;;;;;10.42;100.00;103728.97;5116833;27;45756;-78
2023/02/05 06:59:24;;;;;;;;;5.50;4.00;;;;;10.45;100.00;103747.66;5092376;27;55359;-78
2023/02/05 07:01:50;;;;;;;;;7.75;5.00;;;;;10.46;100.00;103753.84;5095233;27;45464;-78
2023/02/05 07:04:15;;;;;;;;;10.75;6.50;;;;;10.45;100.00;103750.31;5091438;27;45909;-77
2023/02/05 07:06:41;;;;;;;;;6.75;5.25;;;;;10.44;100.00;103751.13;5117129;27;45998;-79
2023/02/05 07:09:06;;;;;;;;;4.25;4.25;;;;;10.48;100.00;103749.56;5112938;27;47310;-78
2023/02/05 07:11:32;;;;;;;;;4.00;4.00;;;;;10.48;100.00;103739.00;5081824;27;45898;-78
2023/02/05 07:14:01;;;;;;;;;8.25;5.25;;;;;10.45;100.00;103744.13;5098533;27;45382;-77
2023/02/05 07:16:26;;;;;;;;;7.50;6.50;;;;;10.40;100.00;103733.28;5097574;27;45316;-77
2023/02/05 07:18:51;;;;;;;;;7.50;4.25;;;;;10.42;100.00;103750.13;5115802;27;45556;-79
2023/02/05 07:21:17;;;;;;;;;9.50;6.50;;;;;10.41;100.00;103750.03;5112279;27;45245;-78
2023/02/05 07:23:43;;;;;;;;;7.25;7.00;;;;;10.36;100.00;103736.56;5096996;27;45441;-79
2023/02/05 07:26:10;;;;;;;;;6.50;6.00;;;;;10.32;100.00;103747.75;5097216;27;45414;-78
2023/02/05 07:28:36;;;;;;;;;4.75;4.00;;;;;10.29;100.00;103760.81;5088729;27;45499;-78
2023/02/05 07:31:05;;;;;;;;;7.50;5.75;;;;;10.29;100.00;103759.91;5111866;27;45500;-78
2023/02/05 07:33:30;;;;;;;;;5.50;5.00;;;;;10.30;100.00;103756.44;5082289;27;45532;-77
2023/02/05 07:35:56;;;;;;;;;6.00;6.00;;;;;10.28;100.00;103759.00;5096948;27;45569;-75
2023/02/05 07:38:23;;;;;;;;;9.00;6.25;;;;;10.31;100.00;103759.16;5110057;27;45710;-77
2023/02/05 07:40:49;;;;;;;;;9.25;8.00;;;;;10.30;100.00;103759.97;5114106;27;45562;-75
2023/02/05 07:43:14;;;;;;;;;6.00;4.00;;;;;10.33;100.00;103761.88;5099282;27;45470;-78
2023/02/05 07:45:40;;;;;;;;;7.50;6.25;;;;;10.33;100.00;103765.41;5100096;27;46784;-78
2023/02/05 07:48:05;;;;;;;;;6.25;5.75;;;;;10.36;100.00;103765.63;5096381;27;47387;-75
2023/02/05 07:50:30;;;;;;;;;8.00;6.75;;;;;10.41;100.00;103766.78;5115974;27;45399;-77
2023/02/05 07:52:56;;;;;;;;;12.25;7.00;;;;;10.41;100.00;103758.88;5112482;27;48698;-77
2023/02/05 07:55:21;;;;;;;;;7.00;4.00;;;;;10.46;100.00;103770.63;5119062;27;49165;-76
2023/02/05 07:57:46;;;;;;;;;8.75;8.25;;;;;10.48;100.00;103784.81;5119216;27;59797;-77
2023/02/05 08:00:12;;;;;;;;;8.75;8.50;;;;;10.52;100.00;103785.00;5118862;27;45462;-77
2023/02/05 08:02:38;;;;;;;;;10.25;7.75;;;;;10.54;100.00;103799.22;5118203;27;45461;-77
2023/02/05 08:05:04;;;;;;;;;9.25;8.00;;;;;10.56;100.00;103797.59;5093619;27;46607;-77
2023/02/05 08:07:29;;;;;;;;;9.50;8.00;;;;;10.56;100.00;103798.50;5099275;27;47909;-77
2023/02/05 08:09:54;;;;;;;;;9.50;9.50;;;;;10.60;100.00;103799.56;5123278;27;45439;-77
2023/02/05 08:12:20;;;;;;;;;9.00;8.50;;;;;10.60;100.00;103799.56;5343565;22;46531;-77
2023/02/05 08:14:45;;;;;;;;;9.25;9.25;;;;;10.65;100.00;103808.66;5094847;27;45385;-78
2023/02/05 08:17:11;;;;;;;;;8.50;7.25;;;;;10.64;100.00;103804.22;5093895;27;54218;-77
2023/02/05 08:19:36;;;;;;;;;8.00;7.25;;;;;10.66;100.00;103795.56;5089822;27;54017;-77
2023/02/05 08:22:01;;;;;;;;;15.75;10.50;;;;;10.68;100.00;103798.28;5097151;27;45481;-77
2023/02/05 08:24:27;;;;;;;;;13.75;9.75;;;;;10.71;100.00;103804.66;5097472;27;45468;-77
2023/02/05 08:26:52;;;;;;;;;13.00;9.25;;;;;10.78;100.00;103799.75;5096352;27;47383;-77
2023/02/05 08:29:18;;;;;;;;;10.50;9.00;;;;;10.80;100.00;103808.66;5081014;27;55462;-75
2023/02/05 08:31:43;;;;;;;;;15.25;12.00;;;;;10.80;100.00;103820.13;5078185;27;45505;-76
2023/02/05 08:34:08;;;;;;;;;11.25;9.00;;;;;10.79;100.00;103820.97;5073755;27;45474;-74
2023/02/05 08:36:34;;;;;;;;;15.75;12.25;;;;;10.78;100.00;103821.78;5094290;27;45646;-75
2023/02/05 08:38:59;;;;;;;;;12.25;11.00;;;;;10.81;100.00;103816.66;5078259;27;45221;-77
2023/02/05 08:41:24;;;;;;;;;10.75;9.25;;;;;10.82;100.00;103821.16;5094840;27;45300;-74
2023/02/05 08:43:50;;;;;;;;;16.50;13.00;;;;;10.82;100.00;103815.88;5090643;27;45540;-75
2023/02/05 08:46:21;;;;;;;;;10.50;9.25;;;;;10.86;100.00;103822.22;5084191;27;62307;-74
2023/02/05 08:48:47;;;;;;;;;12.50;10.75;;;;;10.88;100.00;103828.53;5088892;27;45450;-75
2023/02/05 08:51:13;;;;;;;;;18.00;15.00;;;;;10.87;100.00;103821.41;5072573;27;45408;-75
2023/02/05 08:53:39;;;;;;;;;16.00;13.00;;;;;10.88;100.00;103824.16;5094575;27;45374;-76
2023/02/05 08:56:05;;;;;;;;;27.00;23.75;;;;;10.93;100.00;103837.63;5095133;27;46423;-75
2023/02/05 08:58:31;;;;;;;;;15.25;13.75;;;;;10.95;100.00;103833.34;5094862;27;45334;-77
2023/02/05 09:01:02;;;;;;;;;21.25;16.25;;;;;11.00;100.00;103837.16;5096356;27;45529;-76
2023/02/05 09:03:28;;;;;;;;;16.75;14.75;;;;;10.98;100.00;103823.84;5098269;27;45532;-76
2023/02/05 09:05:53;;;;;;;;;14.50;14.50;;;;;11.03;100.00;103837.34;5079095;27;45763;-75
2023/02/05 09:08:19;;;;;;;;;18.75;16.50;;;;;11.06;100.00;103836.59;5094375;27;57356;-75
2023/02/05 09:10:44;;;;;;;;;14.50;11.50;;;;;11.09;100.00;103831.50;5090581;27;45489;-74
2023/02/05 09:13:10;;;;;;;;;16.00;13.50;;;;;11.13;100.00;103837.03;5071703;27;45935;-78
2023/02/05 09:15:42;;;;;;;;;11.25;11.25;;;;;11.16;100.00;103834.56;5090993;27;47326;-76
2023/02/05 09:18:08;;;;;;;;;34.25;24.00;;;;;11.19;100.00;103829.44;5071798;27;46839;-75
2023/02/05 09:20:33;;;;;;;;;14.75;12.00;;;;;11.20;100.00;103835.66;5084530;27;45612;-76
2023/02/05 09:22:59;;;;;;;;;18.75;14.75;;;;;11.18;100.00;103834.63;5086710;27;45333;-75
2023/02/05 09:25:24;;;;;;;;;13.25;13.25;;;;;11.21;100.00;103834.81;5070967;27;45810;-78
2023/02/05 09:27:50;;;;;;;;;12.50;11.50;;;;;11.20;100.00;103830.34;5067967;27;45516;-77
2023/02/05 09:30:15;;;;;;;;;17.25;17.25;;;;;11.23;100.00;103827.88;5084166;27;45450;-77
2023/02/05 09:32:40;;;;;;;;;27.75;24.00;;;;;11.25;100.00;103836.81;5093580;27;45550;-77
2023/02/05 09:35:06;;;;;;;;;60.25;45.50;;;;;11.30;100.00;103851.22;5068956;27;48618;-77
2023/02/05 09:37:31;;;;;;;;;50.00;38.25;;;;;11.37;100.00;103850.72;5063468;27;45471;-76
2023/02/05 09:39:56;;;;;;;;;46.50;36.00;;;;;11.44;100.00;103852.88;5065609;27;45470;-78
2023/02/05 09:42:35;;;;;;;;;40.25;35.00;;;;;11.50;100.00;103852.31;5079746;27;58878;-79
2023/02/05 09:45:42;;;;;;;;;24.25;20.75;;;;;11.57;100.00;103849.19;5083495;27;46815;-76
2023/02/05 09:48:53;;;;;;;;;22.25;18.50;;;;;11.63;100.00;103859.22;5049835;28;47162;-78
2023/02/05 09:51:37;;;;;;;;;12.75;11.25;;;;;11.63;100.00;103864.50;5069242;27;45558;-75
2023/02/05 09:54:11;;;;;;;;;9.00;8.50;;;;;11.64;100.00;103854.00;5072360;27;45988;-75
2023/02/05 09:56:37;;;;;;;;;7.33;5.00;;;;;11.72;100.00;103852.69;5085007;27;45681;-78
2023/02/05 09:59:03;;;;;;;;;5.00;3.75;;;;;11.77;100.00;103855.56;5073747;27;50870;-75
2023/02/05 10:01:48;;;;;;;;;5.00;3.00;;;;;11.79;100.00;103853.94;5082379;27;49902;-78
2023/02/05 10:04:13;;;;;;;;;3.33;3.33;;;;;11.83;100.00;103858.59;5081192;27;45713;-75
2023/02/05 10:06:48;;;;;;;;;2.00;2.00;;;;;11.84;100.00;103860.41;5093605;27;46294;-79
2023/02/05 10:09:43;;;;;;;;;2.33;2.33;;;;;11.85;100.00;103872.81;5089234;27;45545;-76
2023/02/05 10:12:32;;;;;;;;;3.33;3.33;;;;;11.90;100.00;103867.78;5089501;27;45667;-79
2023/02/05 10:15:06;;;;;;;;;2.00;2.00;;;;;11.94;100.00;103857.44;5094123;27;45483;-77
2023/02/05 10:17:47;;;;;;;;;4.50;4.25;;;;;11.97;100.00;103868.19;5076838;27;48552;-77
2023/02/05 10:20:12;;;;;;;;;8.75;6.25;;;;;11.99;100.00;103869.19;5088967;27;45423;-78
2023/02/05 10:22:44;;;;;;;;;1.67;1.67;;;;;12.03;100.00;103883.50;5096077;27;45510;-77
2023/02/05 10:25:32;;;;;;;;;5.00;3.00;;;;;12.03;100.00;103872.91;5094116;27;45244;-77
2023/02/05 10:28:19;;;;;;;;;4.00;3.00;;;;;12.02;100.00;103865.78;5095134;27;46767;-77
2023/02/05 10:30:57;;;;;;;;;5.00;3.00;;;;;11.98;100.00;103861.16;5082595;27;45741;-77
2023/02/05 10:33:44;;;;;;;;;2.67;2.00;;;;;12.03;100.00;103880.84;5092134;27;45485;-79
2023/02/05 10:36:10;;;;;;;;;3.00;1.67;;;;;12.03;100.00;103896.72;5089745;27;45528;-77
2023/02/05 10:38:43;;;;;;;;;3.00;0.00;;;;;12.03;100.00;103917.91;5060613;27;48360;-78
2023/02/05 10:41:34;;;;;;;;;1.33;1.33;;;;;11.97;100.00;103947.63;5088758;27;45496;-78
2023/02/05 10:44:05;;;;;;;;;1.00;0.00;;;;;11.88;100.00;103943.56;5083446;27;45465;-76
2023/02/05 10:46:33;;;;;;;;;1.00;1.00;;;;;11.77;100.00;103933.28;5066687;27;45353;-79
2023/02/05 10:49:14;;;;;;;;;0.00;0.00;;;;;11.74;100.00;103935.75;5076991;27;48287;-77
2023/02/05 10:51:43;;;;;;;;;2.00;0.33;;;;;11.68;100.00;103921.25;5072963;27;45428;-76
2023/02/05 10:54:17;;;;;;;;;2.00;0.00;;;;;11.55;100.00;103906.41;5077936;27;45478;-76
2023/02/05 10:56:43;;;;;;;;;2.00;0.67;;;;;11.48;100.00;103899.88;5072109;27;45624;-76
2023/02/05 10:59:17;;;;;;;;;2.00;0.00;;;;;11.41;100.00;103910.94;5061234;27;47556;-79
2023/02/05 11:01:43;;;;;;;;;1.00;1.00;;;;;11.39;100.00;103901.06;5091598;27;45363;-76
2023/02/05 11:04:08;;;;;;;;;1.33;1.00;;;;;11.39;100.00;103906.38;5074102;27;45458;-76
2023/02/05 11:06:40;;;;;;;;;1.00;1.00;;;;;11.44;100.00;103887.28;5078005;27;45563;-77
2023/02/05 11:09:24;;;;;;;;;1.00;1.00;;;;;11.54;100.00;103884.31;5088897;27;46097;-76
2023/02/05 11:11:54;;;;;;;;;4.33;1.00;;;;;11.71;100.00;103894.94;5091548;27;45459;-75
2023/02/05 11:14:35;;;;;;;;;1.67;1.00;;;;;11.91;100.00;103891.69;5077544;27;45442;-76
2023/02/05 11:17:19;;;;;;;;;2.00;1.00;;;;;12.06;100.00;103881.03;5096609;27;46967;-76
2023/02/05 11:20:00;;;;;;;;;0.33;0.33;;;;;12.11;100.00;103890.13;5091675;27;45947;-76
2023/02/05 11:22:31;;;;;;;;;1.33;1.33;;;;;12.17;100.00;103901.03;5069596;27;45418;-79
2023/02/05 11:25:05;;;;;;;;;2.00;1.00;;;;;12.19;100.00;103909.06;5069810;27;45534;-75